Concordia, Missouri
Current Conditions -  °F | °C
As of 12:58 AM on Sunday 26 Oct 2014 (Local Time) from KSZL Reporting Station
Clear Clear  
Wind Chill: 62°   Ceiling: Unl
Heat Index: 62°   Visibility: 10mi
Dew Point: 54°   Wind: 7mph
Humidity: 75%   Direction: 110°ESE
Pressure: 29.99"   Gusts: NA
Location:  38.98°N, 93.57°W
Report Text: KSZL 260558Z AUTO 11006KT 10SM CLR 16/12 A2999 RMK AO2 SLP154 T01640120 10206 20157 57008 $
Loading
Personal Weather Stations






























Interactive Weather Map
Tropical Storm Tracking
New forecast layout! Learn more

10-Day Weather Forecast

Advertisements
Track Severe Weather on mobile